Time;durP1;ratioP1;P1;durP2;ratioP2;P2;SDS_P1;SDS_P2;PMS_P1;PMS_P2;Temp;Humidity;BMP_temperature;BMP_pressure;BME280_temperature;BME280_humidity;BME280_pressure;Samples;Min_cycle;Max_cycle;Signal;HPM_P1;HPM_P2
2023/01/24 00:01:05;;;;;;;0.88;0.88;;;5.90;77.70;;;4.93;65.59;96270.31;5076084;28;20192;-40
2023/01/24 00:03:33;;;;;;;0.70;0.70;;;5.90;77.60;;;4.95;65.67;96265.00;5075642;28;20237;-38
2023/01/24 00:06:00;;;;;;;0.75;0.75;;;6.00;77.70;;;4.97;65.91;96268.31;5077031;28;20294;-36
2023/01/24 00:08:27;;;;;;;0.70;0.70;;;6.00;77.70;;;4.98;65.72;96269.97;5076043;28;20329;-39
2023/01/24 00:11:05;;;;;;;0.70;0.70;;;6.00;77.70;;;4.99;65.80;96271.59;5075954;28;20249;-39
2023/01/24 00:13:33;;;;;;;0.70;0.70;;;6.00;77.70;;;4.99;65.43;96266.38;5076291;28;20195;-36
2023/01/24 00:16:15;;;;;;;0.70;0.70;;;6.00;77.70;;;5.01;65.71;96263.69;5075581;28;20191;-35
2023/01/24 00:18:42;;;;;;;0.80;0.80;;;6.00;77.70;;;5.02;65.60;96265.34;5076628;28;20191;-36
2023/01/24 00:21:22;;;;;;;0.73;0.73;;;6.00;77.70;;;5.03;65.74;96256.56;5075493;28;20528;-40
2023/01/24 00:23:52;;;;;;;0.68;0.68;;;6.00;77.60;;;5.02;65.76;96260.94;5076487;28;20186;-35
2023/01/24 00:26:22;;;;;;;0.70;0.70;;;6.00;77.60;;;5.04;65.63;96260.81;5075768;28;20183;-40
2023/01/24 00:28:49;;;;;;;0.60;0.60;;;6.00;77.60;;;5.04;65.60;96260.81;5076199;28;20270;-35
2023/01/24 00:31:17;;;;;;;0.70;0.70;;;6.10;77.60;;;5.04;65.48;96259.06;5075205;28;20203;-35
2023/01/24 00:33:44;;;;;;;0.80;0.80;;;6.10;77.60;;;5.05;65.45;96255.47;5075003;28;20230;-40
2023/01/24 00:36:11;;;;;;;0.80;0.80;;;6.10;77.60;;;5.05;65.60;96259.88;5076292;28;20206;-35
2023/01/24 00:38:38;;;;;;;0.70;0.70;;;6.10;77.60;;;5.06;65.72;96262.34;5075968;28;20533;-40
2023/01/24 00:41:05;;;;;;;0.60;0.60;;;6.10;77.60;;;5.06;65.57;96256.31;5074990;28;20211;-40
2023/01/24 00:43:33;;;;;;;0.70;0.70;;;6.10;77.60;;;5.07;65.48;96269.19;5074808;28;20253;-40
2023/01/24 00:46:00;;;;;;;0.60;0.60;;;6.10;77.60;;;5.06;65.65;96267.53;5074983;28;20191;-36
2023/01/24 00:48:27;;;;;;;0.50;0.50;;;6.10;77.60;;;5.05;65.79;96271.09;5074981;28;20231;-35
2023/01/24 00:50:55;;;;;;;0.70;0.70;;;6.20;77.60;;;5.04;65.63;96268.63;5074875;28;20218;-37
2023/01/24 00:53:22;;;;;;;0.70;0.70;;;6.10;77.50;;;5.02;65.81;96276.56;5074277;28;20292;-38
2023/01/24 00:55:50;;;;;;;0.80;0.80;;;6.10;77.50;;;5.01;65.65;96281.88;5075938;28;20183;-35
2023/01/24 00:58:17;;;;;;;0.70;0.70;;;6.10;77.50;;;5.01;65.72;96285.28;5075814;28;20265;-40
2023/01/24 01:00:45;;;;;;;0.85;0.85;;;6.10;78.30;;;5.02;65.54;96286.94;5075684;28;20550;-36
2023/01/24 01:03:17;;;;;;;0.80;0.80;;;6.10;77.50;;;5.04;65.62;96289.41;5074469;28;20314;-35
2023/01/24 01:05:44;;;;;;;0.60;0.60;;;6.10;77.50;;;5.05;65.63;96293.69;5075428;28;20180;-40
2023/01/24 01:08:12;;;;;;;0.70;0.70;;;6.10;77.50;;;5.06;65.91;96287.53;5075442;28;20282;-35
2023/01/24 01:10:40;;;;;;;0.80;0.80;;;6.10;77.50;;;5.05;65.50;96285.88;5075441;28;20199;-40
2023/01/24 01:13:08;;;;;;;0.70;0.70;;;6.10;77.50;;;5.02;65.46;96276.56;5074194;28;20265;-38
2023/01/24 01:15:35;;;;;;;0.70;0.70;;;6.10;77.50;;;5.01;65.68;96274.91;5074457;28;20199;-40
2023/01/24 01:18:03;;;;;;;0.70;0.70;;;6.10;77.40;;;5.00;65.66;96280.22;5075743;28;20270;-39
2023/01/24 01:20:30;;;;;;;0.70;0.70;;;6.10;77.40;;;5.01;65.37;96284.47;5074543;28;20579;-40
2023/01/24 01:22:57;;;;;;;0.80;0.80;;;6.00;77.40;;;5.00;65.79;96283.63;5057638;28;20519;-36
2023/01/24 01:25:24;;;;;;;0.70;0.70;;;6.10;77.50;;;5.01;65.55;96279.28;5075176;28;20198;-41
2023/01/24 01:27:51;;;;;;;0.80;0.80;;;6.10;77.50;;;5.01;65.72;96279.28;5075404;28;20199;-36
2023/01/24 01:30:18;;;;;;;0.70;0.70;;;6.00;77.50;;;5.00;65.49;96280.22;5075396;28;20622;-39
2023/01/24 01:32:45;;;;;;;0.70;0.70;;;6.00;77.40;;;4.96;65.61;96279.66;5074164;28;20199;-38
2023/01/24 01:35:13;;;;;;;0.80;0.80;;;6.00;77.50;;;4.93;65.55;96275.53;5074833;28;20241;-37
2023/01/24 01:37:40;;;;;;;0.70;0.70;;;6.00;77.50;;;4.93;65.40;96274.69;5074177;28;20734;-40
2023/01/24 01:40:08;;;;;;;0.90;0.90;;;6.00;77.50;;;4.91;65.70;96274.81;5075272;28;20226;-39
2023/01/24 01:42:53;;;;;;;0.60;0.60;;;6.00;77.50;;;4.89;65.52;96274.09;5074049;28;20200;-35
2023/01/24 01:45:43;;;;;;;0.80;0.80;;;6.00;77.50;;;4.90;65.73;96280.94;5074910;28;20240;-40
2023/01/24 01:48:34;;;;;;;0.63;0.63;;;6.00;77.60;;;4.88;65.58;96277.66;5075023;28;20175;-39
2023/01/24 01:51:25;;;;;;;0.70;0.70;;;6.00;77.60;;;4.87;65.62;96281.22;5074307;28;20203;-40
2023/01/24 01:54:05;;;;;;;0.70;0.70;;;6.00;77.50;;;4.88;65.66;96284.63;5073719;28;20207;-40
2023/01/24 01:56:46;;;;;;;0.80;0.80;;;6.00;77.60;;;4.88;65.76;96282.88;5058544;28;20317;-40
2023/01/24 01:59:29;;;;;;;0.70;0.70;;;5.90;77.50;;;4.89;65.65;96281.09;5073922;28;20272;-35
2023/01/24 02:01:58;;;;;;;0.80;0.80;;;5.90;77.50;;;4.90;65.95;96280.94;5077155;28;20227;-38
2023/01/24 02:04:32;;;;;;;0.80;0.80;;;6.00;77.60;;;4.90;65.58;96288.75;5078635;28;20263;-38
2023/01/24 02:07:07;;;;;;;0.70;0.70;;;6.00;77.60;;;4.90;65.61;96288.75;5081787;28;20179;-37
2023/01/24 02:09:41;;;;;;;0.80;0.80;;;6.00;77.60;;;4.89;65.69;96284.50;5081602;28;20231;-35
2023/01/24 02:12:27;;;;;;;0.80;0.80;;;6.00;77.60;;;4.90;65.87;96288.75;5081577;28;20204;-35
2023/01/24 02:17:44;;;;;;;0.80;0.80;;;6.00;77.60;;;4.87;65.93;96286.41;5084100;28;20205;-39
2023/01/24 02:20:22;;;;;;;0.80;0.80;;;6.00;77.60;;;4.87;65.66;96281.22;5099044;28;20208;-36
2023/01/24 02:23:26;;;;;;;0.80;0.80;;;6.00;77.60;;;4.86;65.60;96281.31;5098963;28;20182;-37
2023/01/24 02:26:12;;;;;;;0.70;0.70;;;6.00;77.60;;;4.84;65.84;96273.66;5081013;28;20576;-40
2023/01/24 02:28:46;;;;;;;0.80;0.80;;;6.00;77.60;;;4.86;65.90;96281.31;5081107;28;20536;-40
2023/01/24 02:31:13;;;;;;;0.80;0.80;;;6.00;77.60;;;4.88;66.00;96287.22;5098703;28;20611;-39
2023/01/24 02:33:40;;;;;;;0.70;0.70;;;6.00;77.60;;;4.88;65.83;96280.28;5080781;28;20218;-35
2023/01/24 02:36:28;;;;;;;0.70;0.70;;;5.90;77.50;;;4.90;65.78;96283.56;5098626;28;20183;-40
2023/01/24 02:39:08;;;;;;;0.80;0.80;;;6.00;77.60;;;4.89;65.61;96286.28;5098532;28;20681;-39
2023/01/24 02:41:47;;;;;;;0.80;0.80;;;6.00;77.60;;;4.87;65.69;96288.16;5081216;28;20178;-37
2023/01/24 02:44:25;;;;;;;0.70;0.70;;;6.00;77.60;;;4.88;65.60;96284.63;5097405;28;20191;-35
2023/01/24 02:46:52;;;;;;;0.80;0.80;;;6.00;77.60;;;4.90;65.63;96285.34;5080776;28;20562;-40
2023/01/24 02:49:20;;;;;;;0.70;0.70;;;6.00;77.60;;;4.89;65.67;96283.69;5098351;28;20195;-35
2023/01/24 02:54:32;;;;;;;0.60;0.60;;;5.90;77.50;;;4.88;65.74;96292.44;5080172;28;20595;-38
2023/01/24 02:59:45;;;;;;;0.70;0.70;;;5.90;77.50;;;4.83;65.76;96291.97;5080323;28;20610;-38
2023/01/24 03:02:12;;;;;;;0.70;0.70;;;5.90;77.50;;;4.83;65.50;96292.78;5064180;28;20561;-36
2023/01/24 03:04:40;;;;;;;0.70;0.70;;;5.90;77.60;;;4.81;65.74;96287.72;5097976;28;20202;-39
2023/01/24 03:07:08;;;;;;;0.60;0.60;;;5.80;77.50;;;4.82;65.37;96291.13;5063818;28;20230;-39
2023/01/24 03:09:38;;;;;;;0.80;0.80;;;5.80;77.60;;;4.81;65.67;96292.09;5064002;28;20697;-40
2023/01/24 03:34:32;;;;;;;0.70;0.70;;;5.80;77.60;;;4.73;65.73;96323.88;5080090;28;20218;-39
2023/01/24 03:37:00;;;;;;;0.70;0.70;;;5.80;77.60;;;4.71;65.55;96320.59;5079912;28;20632;-40
2023/01/24 03:42:14;;;;;;;0.80;0.80;;;5.80;77.60;;;4.72;65.83;96330.00;5082855;28;20187;-39
2023/01/24 03:44:45;;;;;;;0.70;0.70;;;5.80;77.70;;;4.73;65.91;96328.25;5079775;28;20206;-37
2023/01/24 03:47:13;;;;;;;0.90;0.90;;;5.80;77.70;;;4.74;65.88;96332.53;5079402;28;20198;-38
2023/01/24 03:52:28;;;;;;;0.70;0.70;;;5.80;77.70;;;4.73;66.02;96323.06;5079654;28;20194;-39
2023/01/24 03:55:01;;;;;;;0.70;0.70;;;5.80;77.70;;;4.73;65.93;96330.84;5079313;28;20215;-36
2023/01/24 03:57:29;;;;;;;0.77;0.77;;;5.80;77.60;;;4.73;65.64;96321.28;5079272;28;20203;-39
2023/01/24 04:00:01;;;;;;;0.80;0.80;;;5.80;77.70;;;4.73;65.90;96316.06;5079246;28;20249;-40
2023/01/24 04:02:31;;;;;;;0.70;0.70;;;5.80;77.60;;;4.74;65.61;96322.94;5079111;28;20259;-39
2023/01/24 04:05:13;;;;;;;0.80;0.80;;;5.70;77.60;;;4.72;65.93;96314.41;5078943;28;20252;-40
2023/01/24 04:07:43;;;;;;;0.65;0.65;;;5.80;77.60;;;4.70;65.55;96315.50;5079314;28;20202;-38
2023/01/24 04:10:11;;;;;;;0.70;0.70;;;5.70;77.50;;;4.70;65.62;96318.94;5079539;28;20195;-40
2023/01/24 04:12:43;;;;;;;0.80;0.80;;;5.70;77.50;;;4.70;65.77;96312.91;5079004;28;20198;-39
2023/01/24 04:15:20;;;;;;;0.80;0.80;;;5.70;77.50;;;4.71;65.74;96306.75;5062091;28;20314;-40
2023/01/24 04:18:00;;;;;;;0.80;0.80;;;5.70;77.60;;;4.70;65.91;96311.13;5063481;28;20201;-40
2023/01/24 04:20:31;;;;;;;0.80;0.80;;;5.70;77.60;;;4.71;65.93;96306.75;5097164;28;20183;-39
2023/01/24 04:23:07;;;;;;;0.75;0.75;;;5.70;77.50;;;4.72;66.04;96311.00;5078856;28;20226;-40
2023/01/24 04:25:37;;;;;;;0.80;0.80;;;5.70;77.60;;;4.71;65.87;96307.59;5078738;28;20233;-38
2023/01/24 04:28:04;;;;;;;0.70;0.70;;;5.70;77.50;;;4.71;65.83;96314.56;5078445;28;20209;-40
2023/01/24 04:30:33;;;;;;;0.70;0.70;;;5.80;77.60;;;4.73;65.72;96313.47;5078587;28;20209;-40
2023/01/24 04:33:03;;;;;;;0.80;0.80;;;5.80;77.60;;;4.72;65.91;96306.63;5078798;28;20210;-39
2023/01/24 04:35:30;;;;;;;0.70;0.70;;;5.80;77.60;;;4.73;65.89;96307.47;5078476;28;20314;-40
2023/01/24 04:38:01;;;;;;;0.80;0.80;;;5.80;77.60;;;4.73;65.82;96307.47;5078664;28;20252;-38
2023/01/24 04:41:01;;;;;;;0.80;0.80;;;5.80;77.60;;;4.68;65.84;96312.22;5087919;28;20206;-39
2023/01/24 04:43:35;;;;;;;0.70;0.70;;;5.70;77.60;;;4.67;65.88;96315.75;5078656;28;20260;-40
2023/01/24 04:46:04;;;;;;;0.82;0.82;;;5.70;77.60;;;4.65;65.69;96311.50;5096056;28;20572;-35
2023/01/24 04:48:48;;;;;;;0.60;0.60;;;5.70;77.60;;;4.65;65.67;96308.91;5064219;28;20212;-39
2023/01/24 04:51:16;;;;;;;0.60;0.60;;;5.70;77.60;;;4.65;65.84;96310.66;5078173;28;20256;-35
2023/01/24 04:53:45;;;;;;;0.80;0.80;;;5.70;77.60;;;4.67;65.93;96313.16;5078059;28;20239;-39
2023/01/24 04:56:14;;;;;;;0.80;0.80;;;5.70;77.60;;;4.67;65.75;96310.56;5077935;28;20199;-40
2023/01/24 04:58:42;;;;;;;0.80;0.80;;;5.70;77.70;;;4.68;65.76;96317.41;5061700;28;20194;-39
2023/01/24 05:01:09;;;;;;;0.70;0.70;;;5.70;77.70;;;4.67;65.69;96313.97;5078050;28;20202;-38
2023/01/24 05:03:48;;;;;;;0.80;0.80;;;5.70;77.60;;;4.66;65.67;96314.91;5060270;28;20265;-39
2023/01/24 05:06:15;;;;;;;0.70;0.70;;;5.70;77.70;;;4.63;65.89;96318.56;5074655;28;20656;-39
2023/01/24 05:08:42;;;;;;;0.70;0.70;;;5.70;77.60;;;4.64;65.75;96317.63;5058004;28;20311;-40
2023/01/24 05:11:10;;;;;;;0.90;0.90;;;5.70;77.60;;;4.65;65.84;96318.44;5058025;28;20260;-40
2023/01/24 05:13:44;;;;;;;0.70;0.70;;;5.70;77.60;;;4.65;65.97;96329.69;5074522;28;20190;-37
2023/01/24 05:16:12;;;;;;;0.75;0.75;;;5.70;77.60;;;4.65;65.92;96321.88;5074243;28;20191;-40
2023/01/24 05:18:39;;;;;;;0.60;0.60;;;5.70;77.60;;;4.68;66.04;96327.81;5074594;28;20542;-36
2023/01/24 05:21:14;;;;;;;0.70;0.70;;;5.70;77.60;;;4.66;65.99;96325.31;5075313;28;20211;-39
2023/01/24 05:23:48;;;;;;;0.65;0.65;;;5.70;77.60;;;4.66;65.86;96325.31;5074967;28;20180;-40
2023/01/24 05:26:15;;;;;;;0.60;0.60;;;5.70;77.60;;;4.65;65.87;96332.28;5074406;28;20665;-39
2023/01/24 05:28:42;;;;;;;0.70;0.70;;;5.70;77.60;;;4.67;65.68;96331.34;5057817;28;20527;-39
2023/01/24 05:31:09;;;;;;;0.80;0.80;;;5.70;77.60;;;4.67;65.75;96326.97;5074199;28;20207;-37
2023/01/24 05:33:37;;;;;;;0.70;0.70;;;5.70;77.60;;;4.67;65.89;96324.34;5074193;28;20237;-37
2023/01/24 05:36:08;;;;;;;0.80;0.80;;;5.70;77.60;;;4.65;65.74;96334.03;5073879;28;20284;-39
2023/01/24 05:38:36;;;;;;;0.80;0.80;;;5.70;77.60;;;4.63;65.69;96336.75;5074081;28;20192;-37
2023/01/24 05:41:07;;;;;;;0.80;0.80;;;5.70;77.60;;;4.64;65.56;96329.81;5057575;28;20202;-40
2023/01/24 05:43:36;;;;;;;0.70;0.70;;;5.70;77.70;;;4.65;65.99;96336.63;5074100;28;20226;-40
2023/01/24 05:46:08;;;;;;;0.80;0.80;;;5.70;77.60;;;4.63;65.76;96333.34;5073896;28;20645;-40
2023/01/24 05:48:42;;;;;;;0.80;0.80;;;5.70;77.60;;;4.61;65.97;96335.22;5058071;28;20195;-40
2023/01/24 05:51:13;;;;;;;0.70;0.70;;;5.70;77.70;;;4.61;65.75;96345.63;5057529;28;20206;-39
2023/01/24 05:53:42;;;;;;;0.70;0.70;;;5.70;77.60;;;4.58;65.65;96346.69;5075020;28;20183;-39
2023/01/24 05:56:16;;;;;;;0.80;0.80;;;5.70;77.60;;;4.56;65.79;96351.19;5073702;28;20212;-40
2023/01/24 05:58:47;;;;;;;0.80;0.80;;;5.70;77.60;;;4.55;65.84;96353.91;5057694;28;20209;-40
2023/01/24 06:01:20;;;;;;;0.70;0.70;;;5.60;77.50;;;4.55;66.02;96348.72;5057716;28;20265;-40
2023/01/24 06:03:50;;;;;;;0.80;0.80;;;5.60;77.50;;;4.54;65.78;96349.66;5073965;28;20231;-38
2023/01/24 06:06:23;;;;;;;0.80;0.80;;;5.70;77.60;;;4.55;66.04;96351.31;5041044;28;20223;-40
2023/01/24 06:08:51;;;;;;;0.70;0.70;;;5.60;77.60;;;4.56;65.75;96351.19;5073865;28;20195;-33
2023/01/24 06:11:27;;;;;;;0.70;0.70;;;5.70;77.60;;;4.59;66.02;96358.75;5057479;28;20230;-33
2023/01/24 06:14:06;;;;;;;0.70;0.70;;;5.70;77.70;;;4.57;65.77;96352.84;5074912;28;20207;-33
2023/01/24 06:16:34;;;;;;;0.70;0.70;;;5.60;77.60;;;4.59;65.86;96366.53;5073565;28;20203;-33
2023/01/24 06:19:02;;;;;;;0.80;0.80;;;5.70;77.60;;;4.60;65.68;96363.00;5073695;28;20510;-33
2023/01/24 06:21:45;;;;;;;0.68;0.68;;;5.70;77.70;;;4.61;65.97;96361.22;5057237;28;20530;-33
2023/01/24 06:24:26;;;;;;;0.70;0.70;;;5.60;77.60;;;4.59;65.83;96366.53;5073680;28;20253;-33
2023/01/24 06:27:22;;;;;;;0.80;0.80;;;5.60;77.60;;;4.57;65.96;96358.03;5069861;28;20597;-33
2023/01/24 06:29:50;;;;;;;0.80;0.80;;;5.60;77.60;;;4.59;65.78;96365.69;5074558;28;20188;-33
2023/01/24 06:32:32;;;;;;;0.70;0.70;;;5.60;77.60;;;4.60;65.80;96369.97;5073680;28;20194;-33
2023/01/24 06:35:32;;;;;;;0.80;0.80;;;5.60;77.60;;;4.61;65.79;96374.22;5074330;28;20199;-34
2023/01/24 06:37:59;;;;;;;0.70;0.70;;;5.60;77.70;;;4.62;65.75;96375.88;5073689;28;20176;-33
2023/01/24 06:40:27;;;;;;;0.80;0.80;;;5.70;77.70;;;4.62;65.76;96384.47;5074776;28;20223;-33
2023/01/24 06:42:54;;;;;;;0.80;0.80;;;5.70;77.80;;;4.63;65.88;96382.72;5073588;28;20191;-33
2023/01/24 06:45:22;;;;;;;0.70;0.70;;;5.60;77.60;;;4.65;65.89;96383.41;5074305;28;20196;-41
2023/01/24 06:47:49;;;;;;;0.80;0.80;;;5.70;77.70;;;4.68;65.93;96377.19;5073574;28;20187;-39
2023/01/24 06:50:21;;;;;;;0.80;0.80;;;5.70;77.80;;;4.68;65.96;96383.19;5075467;28;20191;-36
2023/01/24 06:52:49;;;;;;;0.80;0.80;;;5.70;77.80;;;4.70;66.13;96393.47;5078183;28;20179;-38
2023/01/24 06:55:17;;;;;;;0.80;0.80;;;5.70;77.70;;;4.70;65.76;96394.31;5077104;28;20229;-39
2023/01/24 06:57:46;;;;;;;0.60;0.60;;;5.70;77.70;;;4.70;65.92;96396.91;5077997;28;20206;-39
2023/01/24 07:00:14;;;;;;;0.80;0.80;;;5.70;77.60;;;4.72;66.05;96405.38;5077853;28;20227;-39
2023/01/24 07:02:41;;;;;;;0.70;0.70;;;5.70;77.70;;;4.71;65.97;96403.75;5087430;28;20238;-40
2023/01/24 07:05:08;;;;;;;0.70;0.70;;;5.70;77.70;;;4.69;65.67;96405.63;5097968;28;20203;-39
2023/01/24 07:07:35;;;;;;;0.70;0.70;;;5.80;77.70;;;4.68;65.90;96411.78;5098115;28;20194;-37
2023/01/24 07:10:03;;;;;;;0.70;0.70;;;5.80;77.70;;;4.68;66.09;96411.78;5080365;28;20195;-35
2023/01/24 07:12:30;;;;;;;0.60;0.60;;;5.80;77.80;;;4.67;65.83;96409.31;5097991;28;20195;-36
2023/01/24 07:14:57;;;;;;;0.70;0.70;;;5.70;77.60;;;4.68;65.98;96414.38;5097714;28;20581;-36
2023/01/24 07:17:24;;;;;;;0.70;0.70;;;5.70;77.70;;;4.71;65.85;96411.56;5097882;28;20194;-38
2023/01/24 07:19:52;;;;;;;0.80;0.80;;;5.70;77.70;;;4.72;65.69;96408.00;5097841;28;20187;-36
2023/01/24 07:22:19;;;;;;;0.80;0.80;;;5.70;77.70;;;4.74;65.81;96413.09;5097841;28;20195;-37
2023/01/24 07:24:47;;;;;;;0.80;0.80;;;5.70;77.70;;;4.74;65.98;96415.69;5097773;28;20233;-36
2023/01/24 07:27:14;;;;;;;0.90;0.90;;;5.70;77.70;;;4.75;66.11;96415.56;5097514;28;20217;-38
2023/01/24 07:29:41;;;;;;;0.80;0.80;;;5.80;77.80;;;4.78;66.07;96417.91;5097872;28;20205;-38
2023/01/24 07:32:10;;;;;;;0.80;0.80;;;5.80;77.80;;;4.83;66.19;96419.34;5097576;28;20195;-39
2023/01/24 07:34:38;;;;;;;0.70;0.70;;;5.80;77.80;;;4.83;65.86;96414.16;5097760;28;20190;-39
2023/01/24 07:37:08;;;;;;;0.80;0.80;;;5.80;77.80;;;4.85;66.00;96422.66;5097365;28;20196;-36
2023/01/24 07:39:35;;;;;;;0.60;0.60;;;5.80;77.70;;;4.86;65.89;96424.28;5097940;28;20526;-35
2023/01/24 07:42:02;;;;;;;0.80;0.80;;;5.80;77.70;;;4.87;66.04;96426.78;5097665;28;20195;-39
2023/01/24 07:44:29;;;;;;;0.70;0.70;;;5.80;77.70;;;4.89;65.66;96440.47;5097367;28;20194;-39
2023/01/24 07:46:56;;;;;;;0.70;0.70;;;5.90;77.70;;;4.92;66.06;96436.81;5079598;28;20228;-38
2023/01/24 07:49:23;;;;;;;0.70;0.70;;;5.90;77.80;;;4.93;66.07;96441.91;5097290;28;20561;-38
2023/01/24 07:51:50;;;;;;;0.60;0.60;;;5.90;77.80;;;4.97;66.11;96442.50;5097241;28;20199;-39
2023/01/24 07:54:19;;;;;;;0.80;0.80;;;5.90;77.70;;;5.00;65.86;96439.66;5079800;28;20191;-36
2023/01/24 07:56:47;;;;;;;0.80;0.80;;;6.00;77.80;;;5.03;65.79;96447.22;5096933;28;20215;-36
2023/01/24 07:59:14;;;;;;;0.90;0.90;;;6.00;77.80;;;5.05;65.67;96441.91;5097135;28;20198;-38
2023/01/24 08:01:41;;;;;;;0.70;0.70;;;6.00;77.60;;;5.04;65.43;96455.84;5095761;28;20183;-36
2023/01/24 08:04:08;;;;;;;0.80;0.80;;;6.00;77.60;;;5.02;65.67;96453.38;5097024;28;20183;-39
2023/01/24 08:06:36;;;;;;;0.80;0.80;;;6.00;77.50;;;5.00;65.20;96460.47;5097132;28;20214;-36
2023/01/24 08:09:03;;;;;;;0.80;0.80;;;6.00;77.50;;;4.97;65.36;96448.53;5097012;28;20301;-36
2023/01/24 08:11:30;;;;;;;0.80;0.80;;;6.00;77.50;;;4.96;65.48;96454.66;5096846;28;20199;-32
2023/01/24 08:13:57;;;;;;;0.80;0.80;;;5.90;77.40;;;4.94;65.32;96458.34;5062564;28;20191;-33
2023/01/24 08:16:25;;;;;;;0.80;0.80;;;6.00;77.50;;;4.94;65.51;96463.53;5096723;28;20227;-33
2023/01/24 08:18:53;;;;;;;0.80;0.80;;;6.00;77.50;;;4.91;65.38;96464.59;5096727;28;20627;-33
2023/01/24 08:21:20;;;;;;;0.82;0.82;;;5.90;77.40;;;4.92;65.44;96468.00;5096665;28;20195;-33
2023/01/24 08:23:47;;;;;;;0.70;0.70;;;5.90;77.40;;;4.93;65.58;96467.06;5079013;28;20274;-33
2023/01/24 08:26:14;;;;;;;0.70;0.70;;;5.90;77.50;;;4.94;65.59;96474.78;5096388;28;20207;-33
2023/01/24 08:28:41;;;;;;;0.70;0.70;;;5.90;77.40;;;4.95;65.37;96473.00;5096780;28;20591;-34
2023/01/24 08:31:08;;;;;;;0.80;0.80;;;5.90;77.50;;;4.95;65.48;96480.78;5096533;28;20194;-34
2023/01/24 08:33:37;;;;;;;0.70;0.70;;;5.90;77.40;;;4.95;65.65;96492.00;5096717;28;20194;-33
2023/01/24 08:36:05;;;;;;;0.75;0.75;;;6.00;77.50;;;4.95;65.58;96478.19;5096342;28;20645;-33
2023/01/24 08:38:32;;;;;;;0.80;0.80;;;5.90;77.40;;;4.98;65.44;96480.56;5096313;28;20618;-33
2023/01/24 08:41:04;;;;;;;0.70;0.70;;;6.00;77.50;;;4.99;65.33;96481.38;5096467;28;20279;-33
2023/01/24 08:43:35;;;;;;;0.80;0.80;;;6.00;77.50;;;4.99;65.40;96474.41;5079169;28;20593;-33
2023/01/24 08:46:02;;;;;;;0.80;0.80;;;6.00;77.50;;;5.01;65.38;96480.31;5096063;28;20195;-33
2023/01/24 08:48:29;;;;;;;0.80;0.80;;;6.00;77.50;;;5.04;65.44;96480.09;5096128;28;20645;-33
2023/01/24 08:50:57;;;;;;;0.75;0.75;;;6.00;77.50;;;5.05;65.60;96478.31;5096354;28;20572;-33
2023/01/24 08:53:24;;;;;;;0.70;0.70;;;6.00;77.50;;;5.07;65.55;96486.84;5096070;28;20222;-33
2023/01/24 08:55:51;;;;;;;0.60;0.60;;;6.00;77.50;;;5.12;65.61;96484.69;5078193;28;20237;-33
2023/01/24 08:58:18;;;;;;;0.70;0.70;;;6.00;77.60;;;5.17;65.75;96489.53;5095941;28;20195;-33
2023/01/24 09:00:45;;;;;;;0.88;0.88;;;6.10;77.70;;;5.21;65.41;96489.19;5095821;28;20199;-33
2023/01/24 09:03:16;;;;;;;0.80;0.80;;;6.10;77.60;;;5.25;65.43;96503.59;5096015;28;20700;-33
2023/01/24 09:05:44;;;;;;;0.80;0.80;;;6.10;77.60;;;5.29;65.38;96493.78;5095670;28;20175;-33
2023/01/24 09:08:11;;;;;;;0.70;0.70;;;6.10;77.60;;;5.32;65.44;96492.72;5078167;28;20259;-33
2023/01/24 09:10:38;;;;;;;0.60;0.60;;;6.20;77.50;;;5.33;65.57;96487.38;5095715;28;20198;-33
2023/01/24 09:13:07;;;;;;;0.80;0.80;;;6.20;77.50;;;5.36;65.49;96487.16;5095688;28;20530;-32
2023/01/24 09:15:34;;;;;;;0.70;0.70;;;6.30;77.60;;;5.40;65.21;96493.78;5095470;28;20214;-33
2023/01/24 09:18:04;;;;;;;0.70;0.70;;;6.30;77.50;;;5.45;65.42;96485.59;5077984;28;20693;-33
2023/01/24 09:20:32;;;;;;;0.70;0.70;;;6.30;77.50;;;5.48;65.44;96498.41;5095766;28;20183;-33
2023/01/24 09:22:59;;;;;;;0.70;0.70;;;6.30;77.50;;;5.48;65.16;96506.19;5095733;28;20187;-33
2023/01/24 09:25:26;;;;;;;0.80;0.80;;;6.40;77.40;;;5.51;65.20;96510.34;5095556;28;20208;-37
2023/01/24 09:27:55;;;;;;;0.80;0.80;;;6.40;77.40;;;5.50;64.97;96501.69;5095425;28;20186;-34
2023/01/24 09:30:23;;;;;;;0.77;0.77;;;6.40;77.40;;;5.52;65.18;96507.59;5095357;28;20273;-34
2023/01/24 09:32:51;;;;;;;0.80;0.80;;;6.40;77.40;;;5.55;64.89;96506.53;5078003;28;20205;-34
2023/01/24 09:35:18;;;;;;;0.70;0.70;;;6.50;77.20;;;5.56;65.04;96506.41;5095266;28;20229;-34
2023/01/24 09:37:46;;;;;;;0.70;0.70;;;6.50;77.30;;;5.61;65.32;96500.84;5095382;28;20537;-34
2023/01/24 09:40:29;;;;;;;0.70;0.70;;;6.50;77.40;;;5.70;65.38;96505.31;5095282;28;20191;-34
2023/01/24 09:43:35;;;;;;;0.60;0.60;;;6.50;77.30;;;5.80;65.20;96497.63;5061609;28;20179;-34
2023/01/24 09:46:12;;;;;;;0.60;0.60;;;6.60;77.40;;;5.85;64.99;96505.88;5095245;28;20187;-34
2023/01/24 09:48:41;;;;;;;0.70;0.70;;;6.70;77.50;;;5.89;64.81;96507.28;5077942;28;20179;-33
2023/01/24 09:51:24;;;;;;;0.70;0.70;;;6.70;77.40;;;5.94;64.71;96509.50;5077332;28;20268;-34
2023/01/24 09:53:59;;;;;;;0.60;0.60;;;6.70;77.10;;;5.98;64.61;96499.69;5095127;28;20206;-33
2023/01/24 09:56:35;;;;;;;0.70;0.70;;;6.80;77.00;;;6.01;64.52;96505.50;5077309;28;20629;-34
2023/01/24 09:59:43;;;;;;;0.60;0.60;;;6.80;77.00;;;6.02;64.41;96499.34;5078622;28;20192;-34
2023/01/24 10:02:21;;;;;;;0.60;0.60;;;6.80;76.50;;;6.04;64.26;96502.66;5013345;28;20237;-34
2023/01/24 10:04:49;;;;;;;0.80;0.80;;;6.90;76.70;;;6.10;64.55;96496.09;5013633;28;20528;-34
2023/01/24 10:07:47;;;;;;;0.80;0.80;;;6.90;77.00;;;6.18;64.63;96498.91;5044169;28;20203;-34
2023/01/24 10:10:34;;;;;;;0.70;0.70;;;7.00;77.20;;;6.27;64.64;96493.91;5095229;28;20201;-34
2023/01/24 10:13:13;;;;;;;0.80;0.80;;;7.00;77.10;;;6.31;64.52;96490.09;5077435;28;20179;-34
2023/01/24 10:16:23;;;;;;;0.60;0.60;;;7.10;77.10;;;6.37;64.53;96494.81;5094792;28;20217;-34
2023/01/24 10:19:31;;;;;;;0.70;0.70;;;7.10;76.50;;;6.41;64.57;96488.41;5095130;28;20210;-34
2023/01/24 10:22:24;;;;;;;0.70;0.70;;;7.10;76.70;;;6.46;64.29;96482.78;5095063;28;20197;-34
2023/01/24 10:25:13;;;;;;;0.70;0.70;;;7.20;77.00;;;6.49;64.36;96488.56;5095176;28;20585;-35
2023/01/24 10:27:46;;;;;;;0.70;0.70;;;7.20;76.80;;;6.53;64.16;96492.59;5099021;28;20197;-34
2023/01/24 10:30:47;;;;;;;0.80;0.80;;;7.30;76.90;;;6.60;64.38;96484.25;5081356;28;20183;-34
2023/01/24 10:33:18;;;;;;;0.60;0.60;;;7.30;76.80;;;6.62;64.44;96479.75;5081412;28;20429;-34
2023/01/24 10:36:08;;;;;;;0.70;0.70;;;7.40;77.00;;;6.64;64.22;96483.03;5098640;28;20222;-34
2023/01/24 10:38:37;;;;;;;0.80;0.80;;;7.40;76.50;;;6.64;63.95;96475.22;5081228;28;20183;-33
2023/01/24 10:41:25;;;;;;;0.80;0.80;;;7.50;76.70;;;6.59;63.78;96467.78;5080987;28;20209;-34
2023/01/24 10:44:17;;;;;;;0.70;0.70;;;7.50;76.10;;;6.54;63.87;96468.19;5098866;28;20202;-34
2023/01/24 10:47:09;;;;;;;0.70;0.70;;;7.50;76.20;;;6.53;63.96;96473.50;5098458;28;20195;-34
2023/01/24 10:49:40;;;;;;;0.70;0.70;;;7.50;76.40;;;6.53;63.80;96468.28;5080877;28;20171;-34
2023/01/24 10:52:23;;;;;;;0.60;0.60;;;7.50;76.40;;;6.55;64.05;96469.00;5098497;28;20175;-34
2023/01/24 10:54:59;;;;;;;0.70;0.70;;;7.50;76.40;;;6.60;64.04;96466.81;5098649;28;20202;-34
2023/01/24 10:57:53;;;;;;;0.80;0.80;;;7.50;76.40;;;6.63;64.01;96463.97;5080812;28;20214;-34
2023/01/24 11:00:34;;;;;;;0.70;0.70;;;7.50;76.30;;;6.67;63.93;96462.75;5098757;28;20237;-34
2023/01/24 11:03:09;;;;;;;0.75;0.75;;;7.50;76.20;;;6.72;63.71;96459.75;5098258;28;20669;-34
2023/01/24 11:05:46;;;;;;;0.70;0.70;;;7.60;76.40;;;6.75;63.49;96453.47;5080680;28;20174;-34
2023/01/24 11:08:35;;;;;;;0.80;0.80;;;7.60;76.30;;;6.79;63.78;96444.44;5098019;28;20183;-41
2023/01/24 11:11:18;;;;;;;0.70;0.70;;;7.60;76.10;;;6.82;63.67;96444.16;5080433;28;20210;-41
2023/01/24 11:13:46;;;;;;;0.82;0.82;;;7.60;76.40;;;6.83;63.64;96436.22;5098253;28;20182;-41
2023/01/24 11:16:16;;;;;;;0.80;0.80;;;7.70;76.20;;;6.85;63.46;96442.13;5080150;28;20271;-41
2023/01/24 11:18:57;;;;;;;0.70;0.70;;;7.70;76.20;;;6.88;63.50;96448.84;5098121;28;20194;-41
2023/01/24 11:21:26;;;;;;;0.70;0.70;;;7.70;75.90;;;6.88;63.12;96451.47;5080249;28;20210;-39
2023/01/24 11:24:15;;;;;;;0.70;0.70;;;7.70;76.70;;;6.86;63.11;96449.00;5098217;28;20626;-40
2023/01/24 11:26:56;;;;;;;0.70;0.70;;;7.70;75.50;;;6.83;62.97;96448.44;5097834;28;20279;-37
2023/01/24 11:29:24;;;;;;;0.70;0.70;;;7.70;75.70;;;6.77;62.92;96434.13;5097702;28;20183;-40
2023/01/24 11:31:55;;;;;;;0.70;0.70;;;7.70;75.70;;;6.72;63.02;96437.13;5080733;28;20203;-39